Aviation Digital Data Service (ADDS)

Output produced by METARs form (1031 UTC 30 October 2020)
found at http://aviationweather.gov/metar/data/
 
METAR text: KLXV 300953Z AUTO 04004KT 10SM CLR M07/M12 A3040 RMK AO2 SLP226 T10671117
Conditions at: KLXV (LEADVILLE , CO, US) observed 0953 UTC 30 October 2020
Temperature: -6.7°C (20°F)
Dewpoint: -11.7°C (11°F) [RH = 68%]
Pressure (altimeter): 30.40 inches Hg (1029.5 mb)
[Sea-level pressure: 1022.6 mb]
Winds: from the NE (40 degrees) at 5 MPH (4 knots; 2.1 m/s)
Visibility: 10 or more miles (16+ km)
Ceiling: at least 12,000 feet AGL
Clouds: sky clear below 12,000 feet AGL
Weather: automated observation with no human augmentation;
there may or may not be significant weather present at this time